Total de visites : 242046 | les spotteurs aujourd'hui : 63 | les spotteurs connect├ęs actuellement : 2
METAR EN COURS : Saint-Denis / Gillot, Reunion (FMEE) 20-53S 055-31E 25M- - - - Dec 15, 2018 - 03:30 AM EST / 2018.12.15 0830 UTC- - - - Wind: from the E (080 degrees) at 24 MPH (21 KT):0- - - - Visibility: greater than 7 mile(s):0- - - - Sky conditions: mostly clear- - - - Weather: Towering cumulus clouds observed- - - - Temperature: 86 F (30 C)- - - - Heat index: 91.8 F (33.2 C):1- - - - Dew Point: 71 F (22 C)- - - - Relative Humidity: 62%- - - - Pressure (altimeter): 30.00 in. Hg (1016 hPa)- - - - ob: FMEE 150830Z AUTO 08021KT 9999 FEW039/// ///TCU 30/22 Q1016 NOSIG- - - - cycle: 8- - - -